Terminal Aerodrome Forecast
Issued by NWS

Home | Current Version | Previous Version | Text Only | Print | Product List | Glossary Off
Versions: 1 2 3 4 5 6 7 8 9 10 11 12 13 14 15 16 17 18

000
FTUS43 KABR 291400 AAA
TAFATY
TAF AMD
KATY 291453Z 2915/3012 26004KT P6SM BKN022
     FM291700 17006KT P6SM BKN250
     FM300800 VRB04KT P6SM OVC025=

USA.gov is the U.S. government's official web portal to all federal, state and local government web resources and services.